Peoria, IL

11:12 PM CST on January 30, 2015 (GMT -0600)
Lacon | Change Station
CLOSE
Current Station
Airport
Location: Lacon,
Elevation: 568 ft
Nearby Weather Stations
Active Advisory: Winter Storm Watch

Elev 568 ft 41.02 °N, 89.39 °W | Updated 17 minutes ago

Clear
Clear
21 °F
Feels Like 21 °F
N
0
Wind Variable Wind from North

Today
High -- | Low -- °F
--% Chance of Precip.
Yesterday
High -- | Low -- °F
Precip. -- in
7:10 AM 5:13 PM
Waxing Gibbous, 87% visible
Pressure 30.38 in
Visibility 10.0 miles
Clouds Clear
Dew Point 17 °F
Humidity 84%
Rainfall 0.00 in
Snow Depth Not available.
UV 0 out of 12
Pollen .10 out of 12
Air Quality Not available.
Flu Activity Not available.
METAR KC75 310455Z AUTO 00000KT 10SM CLR M06/M08 A3038 RMK AO2 T10611084

More Conditions Fewer Conditions

Pressure 30.38 in
Visibility 10.0 miles
Clouds Clear
Dew Point 17 °F
Humidity 84%
Rainfall 0.00 in
Snow Depth Not available.
UV 0 out of 12
Pollen .10 out of 12
Air Quality Not available.
Flu Activity Not available.
METAR KC75 310455Z AUTO 00000KT 10SM CLR M06/M08 A3038 RMK AO2 T10611084

More Conditions Fewer Conditions

10-Day Weather Forecast

Almanac

Astronomy

Jan. 30, 2015 Rise Set
Actual Time
Civil Twilight
Nautical Twilight
Astronomical Twilight
Moon
Length of Visible Light
Length of Day
Tomorrow will be .
, % of the Moon is Illuminated

Today's Extremes

State Highs State Lows

Community

WunderPhotos

Upload Photos

1,792,005 photos uploaded!

WunderBlogs® & News

Nearby

Air Quality

  Air Quality AQ Index Pollutant
Not available.

Snow Depth

Station Depth Elevation

Earthquake Activity

City Distance Mag. Time & Date
Minimum magnitude displayed is 2.5.

Coastal Water Temperatures

Place Temperature

Nearby Weather Stations